SWA3473 KAUS-KMAF
Flight info
| Callsign | SWA3473 |
|---|---|
| Flight time | 0h 52m |
| Altitude | 34000 |
| Route | AEROZ2 SJT DEWEY |
| Aircraft | B738/M-SDE2E3FGHIRWXY/LB1 |
Departure
| Time | 2026-04-30 03:50 |
|---|---|
| Airport | Austin Bergstrom International Airport (KAUS) |
Arrival
| Time | 2026-04-30 04:42 |
|---|---|
| Airport | Midland International Air and Space Port (KMAF) |
| Time | Latitude | Longitude | Altitude | Speed | Heading |
|---|---|---|---|---|---|
| 2026-04-30 03:34 | 30.20154 | -97.66553 | 526 ft | 0 kts | 338° |
| 2026-04-30 03:38 | 30.20150 | -97.66552 | 526 ft | 2 kts | 338° |
| 2026-04-30 03:38 | 30.20133 | -97.66544 | 526 ft | 3 kts | 338° |
| 2026-04-30 03:38 | 30.20115 | -97.66535 | 526 ft | 3 kts | 343° |
| 2026-04-30 03:38 | 30.20096 | -97.66531 | 526 ft | 3 kts | 12° |
| 2026-04-30 03:39 | 30.20084 | -97.66538 | 526 ft | 2 kts | 68° |
| 2026-04-30 03:39 | 30.20081 | -97.66550 | 526 ft | 3 kts | 73° |
| 2026-04-30 03:39 | 30.20078 | -97.66563 | 526 ft | 2 kts | 73° |
| 2026-04-30 03:39 | 30.20077 | -97.66567 | 526 ft | 0 kts | 73° |
| 2026-04-30 03:41 | 30.20078 | -97.66561 | 526 ft | 4 kts | 73° |
| 2026-04-30 03:42 | 30.20087 | -97.66528 | 526 ft | 4 kts | 74° |
| 2026-04-30 03:42 | 30.20090 | -97.66492 | 526 ft | 5 kts | 89° |
| 2026-04-30 03:42 | 30.20092 | -97.66444 | 526 ft | 7 kts | 88° |
| 2026-04-30 03:42 | 30.20075 | -97.66395 | 526 ft | 7 kts | 158° |
| 2026-04-30 03:43 | 30.20022 | -97.66391 | 526 ft | 9 kts | 177° |
| 2026-04-30 03:43 | 30.19956 | -97.66389 | 526 ft | 10 kts | 179° |
| 2026-04-30 03:43 | 30.19879 | -97.66388 | 526 ft | 12 kts | 176° |
| 2026-04-30 03:43 | 30.19840 | -97.66315 | 526 ft | 13 kts | 88° |
| 2026-04-30 03:44 | 30.19842 | -97.66211 | 526 ft | 13 kts | 88° |
| 2026-04-30 03:44 | 30.19845 | -97.66101 | 526 ft | 13 kts | 89° |
| 2026-04-30 03:44 | 30.19833 | -97.66001 | 526 ft | 13 kts | 133° |
| 2026-04-30 03:44 | 30.19744 | -97.65985 | 526 ft | 14 kts | 179° |
| 2026-04-30 03:45 | 30.19624 | -97.65982 | 526 ft | 20 kts | 179° |
| 2026-04-30 03:45 | 30.19486 | -97.65978 | 526 ft | 19 kts | 179° |
| 2026-04-30 03:45 | 30.19353 | -97.65975 | 527 ft | 19 kts | 178° |
| 2026-04-30 03:45 | 30.19228 | -97.65971 | 527 ft | 18 kts | 178° |
| 2026-04-30 03:46 | 30.19103 | -97.65968 | 527 ft | 17 kts | 179° |
| 2026-04-30 03:46 | 30.18985 | -97.65965 | 527 ft | 17 kts | 179° |
| 2026-04-30 03:46 | 30.18870 | -97.65961 | 527 ft | 16 kts | 179° |
| 2026-04-30 03:46 | 30.18748 | -97.65958 | 526 ft | 20 kts | 178° |
| 2026-04-30 03:47 | 30.18579 | -97.65954 | 526 ft | 27 kts | 178° |
| 2026-04-30 03:47 | 30.18394 | -97.65949 | 526 ft | 26 kts | 179° |
| 2026-04-30 03:47 | 30.18218 | -97.65945 | 526 ft | 24 kts | 179° |
| 2026-04-30 03:47 | 30.18053 | -97.65940 | 527 ft | 23 kts | 178° |
| 2026-04-30 03:48 | 30.17938 | -97.65932 | 527 ft | 10 kts | 158° |
| 2026-04-30 03:48 | 30.17918 | -97.65862 | 527 ft | 10 kts | 90° |
| 2026-04-30 03:48 | 30.17918 | -97.65786 | 527 ft | 10 kts | 89° |
| 2026-04-30 03:48 | 30.17931 | -97.65724 | 527 ft | 6 kts | 33° |
| 2026-04-30 03:49 | 30.17986 | -97.65727 | 525 ft | 14 kts | 356° |
| 2026-04-30 03:49 | 30.18233 | -97.65734 | 525 ft | 70 kts | 358° |
| 2026-04-30 03:49 | 30.18955 | -97.65753 | 529 ft | 134 kts | 359° |
| 2026-04-30 03:49 | 30.19994 | -97.65795 | 923 ft | 158 kts | 359° |
| 2026-04-30 03:50 | 30.21082 | -97.65823 | 1835 ft | 153 kts | 1° |
| 2026-04-30 03:50 | 30.22175 | -97.65803 | 2481 ft | 165 kts | 4° |
| 2026-04-30 03:50 | 30.23409 | -97.66037 | 2781 ft | 203 kts | 330° |
| 2026-04-30 03:50 | 30.24356 | -97.67355 | 3034 ft | 230 kts | 293° |
| 2026-04-30 03:51 | 30.24934 | -97.69168 | 3375 ft | 249 kts | 288° |
| 2026-04-30 03:51 | 30.25537 | -97.71119 | 3780 ft | 268 kts | 288° |
| 2026-04-30 03:51 | 30.26194 | -97.73175 | 4634 ft | 273 kts | 288° |
| 2026-04-30 03:51 | 30.26865 | -97.75217 | 5643 ft | 269 kts | 289° |
| 2026-04-30 03:52 | 30.27534 | -97.77212 | 6649 ft | 266 kts | 290° |
| 2026-04-30 03:52 | 30.28212 | -97.79207 | 7423 ft | 269 kts | 291° |
| 2026-04-30 03:52 | 30.28904 | -97.81223 | 8282 ft | 270 kts | 292° |
| 2026-04-30 03:52 | 30.29598 | -97.83231 | 9238 ft | 267 kts | 292° |
| 2026-04-30 03:53 | 30.30288 | -97.85220 | 10151 ft | 266 kts | 292° |
| 2026-04-30 03:53 | 30.31000 | -97.87265 | 10592 ft | 284 kts | 292° |
| 2026-04-30 03:53 | 30.31763 | -97.89454 | 10761 ft | 308 kts | 292° |
| 2026-04-30 03:53 | 30.32597 | -97.91848 | 10940 ft | 330 kts | 292° |
| 2026-04-30 03:54 | 30.33473 | -97.94362 | 11369 ft | 340 kts | 292° |
| 2026-04-30 03:54 | 30.34365 | -97.96919 | 12060 ft | 341 kts | 291° |
| 2026-04-30 03:54 | 30.35241 | -97.99435 | 12843 ft | 340 kts | 291° |
| 2026-04-30 03:54 | 30.36131 | -98.01988 | 13551 ft | 342 kts | 291° |
| 2026-04-30 03:55 | 30.37025 | -98.04558 | 14196 ft | 345 kts | 291° |
| 2026-04-30 03:55 | 30.37924 | -98.07142 | 14803 ft | 347 kts | 290° |
| 2026-04-30 03:55 | 30.38831 | -98.09751 | 15451 ft | 349 kts | 290° |
| 2026-04-30 03:55 | 30.39736 | -98.12359 | 16089 ft | 350 kts | 290° |
| 2026-04-30 03:56 | 30.40649 | -98.14988 | 16711 ft | 352 kts | 290° |
| 2026-04-30 03:56 | 30.41554 | -98.17598 | 17283 ft | 355 kts | 290° |
| 2026-04-30 03:56 | 30.42478 | -98.20264 | 17901 ft | 357 kts | 289° |
| 2026-04-30 03:56 | 30.43405 | -98.22941 | 18460 ft | 359 kts | 289° |
| 2026-04-30 03:57 | 30.44338 | -98.25637 | 18963 ft | 361 kts | 289° |
| 2026-04-30 03:57 | 30.45278 | -98.28354 | 19463 ft | 363 kts | 289° |
| 2026-04-30 03:57 | 30.46311 | -98.31047 | 19968 ft | 366 kts | 293° |
| 2026-04-30 03:57 | 30.47456 | -98.33702 | 20449 ft | 368 kts | 294° |
| 2026-04-30 03:58 | 30.48612 | -98.36319 | 20911 ft | 371 kts | 294° |
| 2026-04-30 03:58 | 30.49794 | -98.38986 | 21389 ft | 372 kts | 294° |
| 2026-04-30 03:58 | 30.50983 | -98.41678 | 21857 ft | 374 kts | 294° |
| 2026-04-30 03:58 | 30.52169 | -98.44377 | 22321 ft | 376 kts | 294° |
| 2026-04-30 03:59 | 30.53352 | -98.47080 | 22746 ft | 378 kts | 294° |
| 2026-04-30 03:59 | 30.54546 | -98.49816 | 23170 ft | 380 kts | 294° |
| 2026-04-30 03:59 | 30.55726 | -98.52526 | 23564 ft | 381 kts | 294° |
| 2026-04-30 03:59 | 30.56925 | -98.55284 | 23895 ft | 383 kts | 293° |
| 2026-04-30 04:00 | 30.58136 | -98.58070 | 24223 ft | 385 kts | 293° |
| 2026-04-30 04:00 | 30.59330 | -98.60820 | 24554 ft | 386 kts | 293° |
| 2026-04-30 04:00 | 30.60543 | -98.63619 | 24864 ft | 388 kts | 293° |
| 2026-04-30 04:00 | 30.61763 | -98.66433 | 25181 ft | 390 kts | 293° |
| 2026-04-30 04:01 | 30.62985 | -98.69254 | 25495 ft | 391 kts | 293° |
| 2026-04-30 04:01 | 30.64209 | -98.72083 | 25801 ft | 393 kts | 293° |
| 2026-04-30 04:01 | 30.65443 | -98.74936 | 26101 ft | 395 kts | 293° |
| 2026-04-30 04:01 | 30.66666 | -98.77767 | 26390 ft | 396 kts | 293° |
| 2026-04-30 04:02 | 30.67906 | -98.80637 | 26684 ft | 398 kts | 293° |
| 2026-04-30 04:02 | 30.69150 | -98.83522 | 26967 ft | 400 kts | 293° |
| 2026-04-30 04:02 | 30.70398 | -98.86415 | 27230 ft | 401 kts | 293° |
| 2026-04-30 04:02 | 30.71653 | -98.89327 | 27503 ft | 403 kts | 293° |
| 2026-04-30 04:03 | 30.72910 | -98.92249 | 27779 ft | 405 kts | 293° |
| 2026-04-30 04:03 | 30.74172 | -98.95182 | 28065 ft | 405 kts | 293° |
| 2026-04-30 04:03 | 30.75416 | -98.98074 | 28453 ft | 403 kts | 293° |
| 2026-04-30 04:03 | 30.76668 | -99.00988 | 28885 ft | 401 kts | 293° |
| 2026-04-30 04:04 | 30.77916 | -99.03894 | 29286 ft | 400 kts | 293° |
| 2026-04-30 04:04 | 30.79159 | -99.06793 | 29669 ft | 399 kts | 292° |
| 2026-04-30 04:04 | 30.80396 | -99.09680 | 30058 ft | 398 kts | 292° |
| 2026-04-30 04:04 | 30.81614 | -99.12525 | 30412 ft | 397 kts | 292° |
| 2026-04-30 04:05 | 30.82839 | -99.15387 | 30820 ft | 394 kts | 292° |
| 2026-04-30 04:05 | 30.84063 | -99.18250 | 31211 ft | 392 kts | 293° |
| 2026-04-30 04:05 | 30.85277 | -99.21091 | 31574 ft | 391 kts | 293° |
| 2026-04-30 04:05 | 30.86482 | -99.23916 | 31975 ft | 389 kts | 293° |
| 2026-04-30 04:06 | 30.87667 | -99.26695 | 32385 ft | 386 kts | 293° |
| 2026-04-30 04:06 | 30.88864 | -99.29503 | 32781 ft | 384 kts | 293° |
| 2026-04-30 04:06 | 30.90057 | -99.32305 | 33123 ft | 384 kts | 293° |
| 2026-04-30 04:06 | 30.91228 | -99.35057 | 33437 ft | 383 kts | 293° |
| 2026-04-30 04:07 | 30.92411 | -99.37840 | 33803 ft | 382 kts | 293° |
| 2026-04-30 04:07 | 30.93585 | -99.40604 | 34009 ft | 382 kts | 293° |
| 2026-04-30 04:08 | 30.97136 | -99.48977 | 33525 ft | 383 kts | 293° |
| 2026-04-30 04:08 | 30.98300 | -99.51725 | 33270 ft | 382 kts | 292° |
| 2026-04-30 04:08 | 30.99483 | -99.54519 | 33022 ft | 384 kts | 292° |
| 2026-04-30 04:08 | 31.00671 | -99.57330 | 32773 ft | 386 kts | 292° |
| 2026-04-30 04:09 | 31.01860 | -99.60144 | 32520 ft | 387 kts | 292° |
| 2026-04-30 04:09 | 31.03038 | -99.62935 | 32279 ft | 388 kts | 292° |
| 2026-04-30 04:09 | 31.04232 | -99.65764 | 32038 ft | 389 kts | 292° |
| 2026-04-30 04:09 | 31.05431 | -99.68608 | 31782 ft | 390 kts | 292° |
| 2026-04-30 04:10 | 31.06629 | -99.71450 | 31543 ft | 391 kts | 292° |
| 2026-04-30 04:10 | 31.07831 | -99.74304 | 31300 ft | 391 kts | 292° |
| 2026-04-30 04:10 | 31.09030 | -99.77153 | 31072 ft | 392 kts | 292° |
| 2026-04-30 04:10 | 31.10230 | -99.80009 | 30837 ft | 392 kts | 292° |
| 2026-04-30 04:11 | 31.11418 | -99.82837 | 30610 ft | 392 kts | 292° |
| 2026-04-30 04:11 | 31.12620 | -99.85702 | 30377 ft | 393 kts | 292° |
| 2026-04-30 04:11 | 31.13825 | -99.88573 | 30155 ft | 393 kts | 292° |
| 2026-04-30 04:11 | 31.15026 | -99.91441 | 29902 ft | 394 kts | 292° |
| 2026-04-30 04:12 | 31.16235 | -99.94329 | 29625 ft | 395 kts | 292° |
| 2026-04-30 04:12 | 31.17448 | -99.97230 | 29221 ft | 398 kts | 292° |
| 2026-04-30 04:12 | 31.18655 | -100.00119 | 28838 ft | 401 kts | 292° |
| 2026-04-30 04:12 | 31.19884 | -100.03063 | 28460 ft | 403 kts | 292° |
| 2026-04-30 04:13 | 31.21116 | -100.06015 | 28078 ft | 405 kts | 292° |
| 2026-04-30 04:13 | 31.22351 | -100.08974 | 27702 ft | 406 kts | 292° |
| 2026-04-30 04:13 | 31.23591 | -100.11949 | 27325 ft | 407 kts | 292° |
| 2026-04-30 04:13 | 31.24835 | -100.14936 | 26963 ft | 408 kts | 292° |
| 2026-04-30 04:14 | 31.26062 | -100.17885 | 26596 ft | 409 kts | 292° |
| 2026-04-30 04:14 | 31.27305 | -100.20875 | 26249 ft | 409 kts | 292° |
| 2026-04-30 04:14 | 31.28563 | -100.23905 | 26084 ft | 413 kts | 292° |
| 2026-04-30 04:14 | 31.29821 | -100.26939 | 26052 ft | 415 kts | 292° |
| 2026-04-30 04:15 | 31.31082 | -100.29977 | 26042 ft | 413 kts | 292° |
| 2026-04-30 04:15 | 31.32332 | -100.32993 | 26051 ft | 412 kts | 292° |
| 2026-04-30 04:15 | 31.33584 | -100.36018 | 26046 ft | 413 kts | 292° |
| 2026-04-30 04:15 | 31.34819 | -100.39004 | 26052 ft | 413 kts | 292° |
| 2026-04-30 04:16 | 31.36058 | -100.41998 | 25802 ft | 401 kts | 292° |
| 2026-04-30 04:16 | 31.37258 | -100.44894 | 25571 ft | 388 kts | 292° |
| 2026-04-30 04:16 | 31.38382 | -100.47703 | 25326 ft | 375 kts | 290° |
| 2026-04-30 04:16 | 31.39414 | -100.50429 | 25095 ft | 364 kts | 290° |
| 2026-04-30 04:17 | 31.40407 | -100.53110 | 24862 ft | 354 kts | 289° |
| 2026-04-30 04:17 | 31.41374 | -100.55734 | 24631 ft | 349 kts | 289° |
| 2026-04-30 04:17 | 31.42358 | -100.58412 | 24432 ft | 366 kts | 290° |
| 2026-04-30 04:17 | 31.43383 | -100.61199 | 24387 ft | 377 kts | 290° |
| 2026-04-30 04:18 | 31.44417 | -100.63995 | 24322 ft | 376 kts | 290° |
| 2026-04-30 04:18 | 31.45449 | -100.66765 | 24112 ft | 364 kts | 290° |
| 2026-04-30 04:18 | 31.46445 | -100.69431 | 24045 ft | 349 kts | 290° |
| 2026-04-30 04:18 | 31.47400 | -100.71987 | 24023 ft | 334 kts | 290° |
| 2026-04-30 04:19 | 31.48316 | -100.74446 | 24021 ft | 327 kts | 289° |
| 2026-04-30 04:19 | 31.49225 | -100.76897 | 24021 ft | 328 kts | 289° |
| 2026-04-30 04:19 | 31.50130 | -100.79343 | 24021 ft | 333 kts | 289° |
| 2026-04-30 04:19 | 31.51057 | -100.81849 | 24017 ft | 336 kts | 289° |
| 2026-04-30 04:20 | 31.51988 | -100.84366 | 24013 ft | 338 kts | 289° |
| 2026-04-30 04:20 | 31.52926 | -100.86901 | 23993 ft | 338 kts | 289° |
| 2026-04-30 04:20 | 31.53863 | -100.89431 | 23995 ft | 337 kts | 289° |
| 2026-04-30 04:20 | 31.54784 | -100.91918 | 23984 ft | 336 kts | 289° |
| 2026-04-30 04:21 | 31.55713 | -100.94430 | 23990 ft | 334 kts | 289° |
| 2026-04-30 04:21 | 31.56638 | -100.96933 | 23986 ft | 333 kts | 289° |
| 2026-04-30 04:21 | 31.57556 | -100.99421 | 23988 ft | 331 kts | 289° |
| 2026-04-30 04:21 | 31.58471 | -101.01899 | 23989 ft | 330 kts | 289° |
| 2026-04-30 04:22 | 31.59369 | -101.04338 | 23990 ft | 330 kts | 289° |
| 2026-04-30 04:22 | 31.60275 | -101.06794 | 23970 ft | 321 kts | 289° |
| 2026-04-30 04:22 | 31.61147 | -101.09156 | 23970 ft | 308 kts | 289° |
| 2026-04-30 04:22 | 31.61985 | -101.11426 | 23964 ft | 296 kts | 289° |
| 2026-04-30 04:23 | 31.62801 | -101.13650 | 23534 ft | 311 kts | 289° |
| 2026-04-30 04:23 | 31.63693 | -101.16108 | 23023 ft | 342 kts | 289° |
| 2026-04-30 04:23 | 31.64667 | -101.18789 | 22472 ft | 369 kts | 290° |
| 2026-04-30 04:23 | 31.65693 | -101.21589 | 21903 ft | 372 kts | 290° |
| 2026-04-30 04:24 | 31.66707 | -101.24344 | 21351 ft | 370 kts | 290° |
| 2026-04-30 04:24 | 31.67724 | -101.27108 | 20805 ft | 368 kts | 290° |
| 2026-04-30 04:24 | 31.68737 | -101.29867 | 20238 ft | 367 kts | 290° |
| 2026-04-30 04:24 | 31.69747 | -101.32625 | 19664 ft | 366 kts | 291° |
| 2026-04-30 04:25 | 31.70738 | -101.35339 | 19110 ft | 366 kts | 291° |
| 2026-04-30 04:25 | 31.71740 | -101.38084 | 18555 ft | 365 kts | 291° |
| 2026-04-30 04:25 | 31.72740 | -101.40825 | 17978 ft | 364 kts | 291° |
| 2026-04-30 04:25 | 31.73739 | -101.43564 | 17320 ft | 363 kts | 291° |
| 2026-04-30 04:26 | 31.74731 | -101.46288 | 16775 ft | 359 kts | 291° |
| 2026-04-30 04:26 | 31.75701 | -101.48954 | 16360 ft | 352 kts | 291° |
| 2026-04-30 04:26 | 31.76545 | -101.51645 | 15630 ft | 353 kts | 286° |
| 2026-04-30 04:26 | 31.77272 | -101.54372 | 15129 ft | 349 kts | 285° |
| 2026-04-30 04:27 | 31.77972 | -101.57105 | 14685 ft | 344 kts | 285° |
| 2026-04-30 04:27 | 31.78424 | -101.58881 | 14401 ft | 341 kts | 285° |
| 2026-04-30 04:27 | 31.79320 | -101.62389 | 13870 ft | 334 kts | 285° |
| 2026-04-30 04:27 | 31.79765 | -101.64122 | 13583 ft | 331 kts | 285° |
| 2026-04-30 04:28 | 31.80433 | -101.66707 | 13147 ft | 326 kts | 285° |
| 2026-04-30 04:28 | 31.81303 | -101.70064 | 12613 ft | 321 kts | 285° |
| 2026-04-30 04:28 | 31.81734 | -101.71724 | 12356 ft | 318 kts | 285° |
| 2026-04-30 04:28 | 31.82376 | -101.74192 | 11973 ft | 314 kts | 285° |
| 2026-04-30 04:29 | 31.83014 | -101.76648 | 11590 ft | 311 kts | 285° |
| 2026-04-30 04:29 | 31.83644 | -101.79069 | 11229 ft | 307 kts | 285° |
| 2026-04-30 04:29 | 31.84264 | -101.81457 | 10863 ft | 305 kts | 285° |
| 2026-04-30 04:29 | 31.84884 | -101.83847 | 10514 ft | 303 kts | 285° |
| 2026-04-30 04:30 | 31.85486 | -101.86165 | 10332 ft | 295 kts | 285° |
| 2026-04-30 04:30 | 31.86076 | -101.88442 | 10179 ft | 287 kts | 285° |
| 2026-04-30 04:30 | 31.86649 | -101.90650 | 10050 ft | 277 kts | 285° |
| 2026-04-30 04:30 | 31.87203 | -101.92791 | 9900 ft | 270 kts | 285° |
| 2026-04-30 04:31 | 31.87749 | -101.94905 | 9593 ft | 269 kts | 285° |
| 2026-04-30 04:31 | 31.88292 | -101.97008 | 9301 ft | 267 kts | 285° |
| 2026-04-30 04:31 | 31.88824 | -101.99069 | 9015 ft | 266 kts | 285° |
| 2026-04-30 04:31 | 31.89362 | -102.01155 | 8720 ft | 265 kts | 284° |
| 2026-04-30 04:32 | 31.89897 | -102.03231 | 8425 ft | 264 kts | 284° |
| 2026-04-30 04:32 | 31.90429 | -102.05299 | 8119 ft | 264 kts | 284° |
| 2026-04-30 04:32 | 31.90961 | -102.07365 | 7831 ft | 263 kts | 284° |
| 2026-04-30 04:32 | 31.91492 | -102.09429 | 7530 ft | 263 kts | 284° |
| 2026-04-30 04:33 | 31.92021 | -102.11490 | 7242 ft | 263 kts | 284° |
| 2026-04-30 04:33 | 31.92608 | -102.13532 | 6945 ft | 265 kts | 295° |
| 2026-04-30 04:33 | 31.93808 | -102.15173 | 6655 ft | 271 kts | 323° |
| 2026-04-30 04:33 | 31.95468 | -102.16191 | 6414 ft | 270 kts | 334° |
| 2026-04-30 04:34 | 31.97180 | -102.17043 | 6306 ft | 263 kts | 335° |
| 2026-04-30 04:34 | 31.98871 | -102.17866 | 6106 ft | 265 kts | 335° |
| 2026-04-30 04:34 | 32.00584 | -102.18698 | 6040 ft | 265 kts | 335° |
| 2026-04-30 04:34 | 32.02291 | -102.19526 | 6001 ft | 262 kts | 335° |
| 2026-04-30 04:35 | 32.03874 | -102.20476 | 5996 ft | 247 kts | 317° |
| 2026-04-30 04:35 | 32.04834 | -102.22033 | 6000 ft | 227 kts | 290° |
| 2026-04-30 04:35 | 32.05406 | -102.23703 | 6000 ft | 219 kts | 290° |
| 2026-04-30 04:35 | 32.05982 | -102.25355 | 5981 ft | 216 kts | 290° |
| 2026-04-30 04:36 | 32.06549 | -102.26986 | 5909 ft | 213 kts | 290° |
| 2026-04-30 04:36 | 32.07110 | -102.28594 | 5612 ft | 212 kts | 290° |
| 2026-04-30 04:36 | 32.07670 | -102.30204 | 5272 ft | 211 kts | 291° |
| 2026-04-30 04:36 | 32.08206 | -102.31790 | 4945 ft | 211 kts | 291° |
| 2026-04-30 04:37 | 32.08729 | -102.33386 | 4905 ft | 208 kts | 291° |
| 2026-04-30 04:37 | 32.09225 | -102.35016 | 4884 ft | 214 kts | 283° |
| 2026-04-30 04:37 | 32.09087 | -102.36740 | 4878 ft | 216 kts | 242° |
| 2026-04-30 04:37 | 32.07985 | -102.37926 | 4885 ft | 221 kts | 201° |
| 2026-04-30 04:38 | 32.06472 | -102.38217 | 4898 ft | 221 kts | 186° |
| 2026-04-30 04:38 | 32.04932 | -102.38387 | 4904 ft | 222 kts | 186° |
| 2026-04-30 04:38 | 32.03407 | -102.38551 | 4902 ft | 223 kts | 186° |
| 2026-04-30 04:38 | 32.01889 | -102.38516 | 4883 ft | 214 kts | 163° |
| 2026-04-30 04:39 | 32.00680 | -102.37611 | 4915 ft | 204 kts | 132° |
| 2026-04-30 04:39 | 31.99959 | -102.36185 | 4913 ft | 202 kts | 113° |
| 2026-04-30 04:39 | 31.99445 | -102.34638 | 4918 ft | 203 kts | 110° |
| 2026-04-30 04:39 | 31.98970 | -102.33081 | 4919 ft | 204 kts | 110° |
| 2026-04-30 04:40 | 31.98432 | -102.31508 | 4722 ft | 212 kts | 113° |
| 2026-04-30 04:40 | 31.97849 | -102.29944 | 4453 ft | 206 kts | 114° |
| 2026-04-30 04:40 | 31.97290 | -102.28445 | 4191 ft | 192 kts | 113° |
| 2026-04-30 04:40 | 31.96782 | -102.27077 | 3957 ft | 173 kts | 113° |
| 2026-04-30 04:41 | 31.96320 | -102.25832 | 3726 ft | 157 kts | 112° |
| 2026-04-30 04:41 | 31.95888 | -102.24668 | 3468 ft | 152 kts | 111° |
| 2026-04-30 04:41 | 31.95476 | -102.23571 | 3244 ft | 143 kts | 109° |
| 2026-04-30 04:41 | 31.95079 | -102.22484 | 3070 ft | 145 kts | 111° |
| 2026-04-30 04:42 | 31.94672 | -102.21383 | 2893 ft | 147 kts | 110° |
| 2026-04-30 04:42 | 31.94298 | -102.20372 | 2871 ft | 120 kts | 114° |
| 2026-04-30 04:42 | 31.94040 | -102.19689 | 2868 ft | 46 kts | 115° |
| 2026-04-30 04:42 | 31.93951 | -102.19455 | 2864 ft | 15 kts | 114° |
| 2026-04-30 04:43 | 31.93887 | -102.19457 | 2863 ft | 10 kts | 234° |
| 2026-04-30 04:43 | 31.93844 | -102.19527 | 2863 ft | 13 kts | 235° |
| 2026-04-30 04:43 | 31.93824 | -102.19640 | 2863 ft | 15 kts | 272° |
| 2026-04-30 04:43 | 31.93826 | -102.19761 | 2863 ft | 14 kts | 270° |
| 2026-04-30 04:44 | 31.93827 | -102.19876 | 2865 ft | 14 kts | 270° |
| 2026-04-30 04:44 | 31.93828 | -102.19986 | 2867 ft | 13 kts | 270° |
| 2026-04-30 04:44 | 31.93829 | -102.20091 | 2868 ft | 13 kts | 271° |
| 2026-04-30 04:44 | 31.93830 | -102.20202 | 2869 ft | 14 kts | 270° |
| 2026-04-30 04:45 | 31.93830 | -102.20321 | 2869 ft | 15 kts | 270° |
| 2026-04-30 04:45 | 31.93824 | -102.20445 | 2869 ft | 15 kts | 264° |
| 2026-04-30 04:45 | 31.93776 | -102.20533 | 2870 ft | 14 kts | 184° |
| 2026-04-30 04:45 | 31.93706 | -102.20582 | 2870 ft | 13 kts | 270° |
| 2026-04-30 04:46 | 31.93696 | -102.20680 | 2869 ft | 3 kts | 263° |